createdAt,value
2023-03-22T00:00:27.364Z,292.83
2023-03-22T00:02:56.620Z,297.67
2023-03-22T00:05:25.712Z,306.38
2023-03-22T00:07:54.135Z,291.08
2023-03-22T00:10:22.045Z,300.48
2023-03-22T00:12:49.696Z,298.35
2023-03-22T00:15:17.603Z,282.75
2023-03-22T00:17:45.626Z,302.85
2023-03-22T00:20:13.593Z,300.50
2023-03-22T00:22:42.607Z,304.95
2023-03-22T00:25:10.980Z,285.55
2023-03-22T00:27:38.728Z,297.48
2023-03-22T00:30:08.982Z,306.75
2023-03-22T00:32:36.974Z,298.35
2023-03-22T00:35:05.427Z,286.38
2023-03-22T00:37:34.298Z,286.30
2023-03-22T00:40:04.599Z,301.00
2023-03-22T00:42:32.276Z,293.27
2023-03-22T00:44:59.902Z,283.17
2023-03-22T00:47:27.604Z,292.80
2023-03-22T00:49:55.512Z,283.73
2023-03-22T00:52:23.290Z,293.52
2023-03-22T00:54:51.287Z,291.40
2023-03-22T00:57:21.212Z,296.65
2023-03-22T00:59:49.279Z,282.60
2023-03-22T01:02:17.402Z,297.15
2023-03-22T01:04:46.281Z,309.52
2023-03-22T01:07:17.566Z,293.65
2023-03-22T01:09:45.831Z,282.88
2023-03-22T01:12:16.109Z,301.70
2023-03-22T01:14:45.663Z,287.70
2023-03-22T01:17:13.438Z,297.17
2023-03-22T01:19:41.213Z,291.67
2023-03-22T01:22:09.514Z,308.65
2023-03-22T01:24:37.635Z,287.90
2023-03-22T01:27:05.787Z,286.50
2023-03-22T01:29:35.300Z,284.90
2023-03-22T01:32:05.176Z,287.70
2023-03-22T01:34:33.126Z,314.38
2023-03-22T01:37:03.002Z,278.90
2023-03-22T01:39:32.854Z,293.00
2023-03-22T01:42:05.501Z,294.33
2023-03-22T01:44:33.639Z,291.67
2023-03-22T01:47:05.090Z,317.42
2023-03-22T01:49:35.681Z,321.00
2023-03-22T01:52:07.996Z,307.10
2023-03-22T01:54:46.017Z,304.35
2023-03-22T01:57:37.404Z,302.80
2023-03-22T02:00:10.772Z,308.90
2023-03-22T02:03:07.066Z,299.00
2023-03-22T02:05:41.812Z,298.85
2023-03-22T02:08:10.563Z,300.45
2023-03-22T02:10:53.639Z,300.60
2023-03-22T02:13:38.860Z,298.50
2023-03-22T02:16:31.946Z,294.23
2023-03-22T02:19:33.371Z,297.15
2023-03-22T02:22:22.820Z,295.73
2023-03-22T02:25:28.359Z,295.95
2023-03-22T02:28:14.483Z,272.63
2023-03-22T02:31:15.553Z,292.55
2023-03-22T02:34:17.909Z,303.63
2023-03-22T02:37:43.262Z,291.45
2023-03-22T02:40:16.689Z,278.20
2023-03-22T02:42:53.109Z,279.58
2023-03-22T02:45:29.013Z,307.73
2023-03-22T02:48:03.584Z,294.50
2023-03-22T02:50:39.465Z,288.92
2023-03-22T02:53:15.906Z,296.80
2023-03-22T02:55:49.829Z,297.60
2023-03-22T02:58:22.225Z,313.63
2023-03-22T03:00:55.531Z,311.35
2023-03-22T03:03:27.086Z,309.52
2023-03-22T03:05:59.404Z,299.77
2023-03-22T03:08:28.371Z,304.48
2023-03-22T03:10:58.562Z,305.42
2023-03-22T03:13:26.666Z,298.83
2023-03-22T03:15:59.601Z,291.05
2023-03-22T03:18:45.667Z,294.17
2023-03-22T03:21:24.918Z,279.70
2023-03-22T03:24:00.240Z,292.88
2023-03-22T03:26:39.983Z,282.15
2023-03-22T03:29:15.853Z,302.80
2023-03-22T03:31:50.057Z,294.58
2023-03-22T03:34:23.088Z,305.67
2023-03-22T03:36:57.213Z,289.60
2023-03-22T03:39:29.566Z,304.42
2023-03-22T03:42:01.355Z,306.27
2023-03-22T03:44:30.984Z,304.17
2023-03-22T03:46:59.578Z,303.63
2023-03-22T03:49:27.712Z,298.92
2023-03-22T03:51:56.862Z,302.45
2023-03-22T03:54:25.188Z,308.83
2023-03-22T03:56:54.008Z,312.17
2023-03-22T03:59:23.260Z,305.58
2023-03-22T04:01:53.072Z,294.95
2023-03-22T04:04:30.531Z,307.27
2023-03-22T04:07:04.988Z,300.90
2023-03-22T04:09:37.603Z,294.63
2023-03-22T04:12:15.961Z,301.75
2023-03-22T04:14:51.470Z,295.02
2023-03-22T04:17:25.619Z,298.42
2023-03-22T04:19:56.414Z,267.60
2023-03-22T04:22:26.310Z,300.05
2023-03-22T04:24:53.993Z,294.98
2023-03-22T04:27:24.146Z,291.20
2023-03-22T04:30:06.204Z,300.27
2023-03-22T04:32:52.356Z,281.67
2023-03-22T04:35:26.911Z,290.88
2023-03-22T04:37:56.014Z,305.42
2023-03-22T04:40:26.388Z,291.95
2023-03-22T04:43:03.971Z,290.55
2023-03-22T04:46:12.711Z,282.40
2023-03-22T04:48:47.556Z,281.98
2023-03-22T04:51:15.583Z,298.85
2023-03-22T04:54:03.518Z,310.23
2023-03-22T04:56:31.468Z,290.85
2023-03-22T04:58:59.200Z,303.33
2023-03-22T05:01:30.091Z,286.40
2023-03-22T05:04:09.467Z,289.38
2023-03-22T05:06:37.169Z,294.73
2023-03-22T05:09:12.567Z,295.30
2023-03-22T05:11:41.125Z,296.27
2023-03-22T05:14:24.604Z,290.67
2023-03-22T05:16:54.056Z,287.52
2023-03-22T05:19:22.363Z,280.65
2023-03-22T05:21:57.818Z,292.25
2023-03-22T05:24:30.593Z,294.13
2023-03-22T05:27:01.048Z,299.35
2023-03-22T05:29:28.987Z,302.75
2023-03-22T05:32:09.784Z,303.60
2023-03-22T05:34:37.819Z,282.43
2023-03-22T05:37:16.782Z,285.38
2023-03-22T05:39:56.218Z,274.17
2023-03-22T05:42:32.371Z,285.75
2023-03-22T05:45:01.785Z,272.13
2023-03-22T05:47:31.260Z,282.17
2023-03-22T05:50:15.393Z,277.30
2023-03-22T05:52:44.641Z,256.70
2023-03-22T05:55:23.170Z,254.90
2023-03-22T05:57:56.521Z,271.75
2023-03-22T06:00:26.127Z,280.10
2023-03-22T06:03:35.460Z,265.00
2023-03-22T06:06:20.967Z,249.80
2023-03-22T06:09:07.290Z,258.30
2023-03-22T06:11:44.006Z,251.40
2023-03-22T06:14:12.151Z,265.50
2023-03-22T06:17:01.945Z,244.23
2023-03-22T06:19:31.202Z,249.47
2023-03-22T06:22:02.429Z,268.80
2023-03-22T06:24:32.242Z,266.37
2023-03-22T06:27:00.197Z,256.93
2023-03-22T06:29:28.998Z,260.87
2023-03-22T06:31:59.850Z,264.00
2023-03-22T06:34:27.818Z,270.42
2023-03-22T06:36:57.620Z,258.23
2023-03-22T06:39:32.779Z,257.42
2023-03-22T06:42:00.962Z,267.00
2023-03-22T06:44:29.345Z,275.02
2023-03-22T06:47:23.469Z,276.95
2023-03-22T06:50:10.814Z,256.52
2023-03-22T06:53:18.192Z,265.50
2023-03-22T06:55:46.053Z,264.27
2023-03-22T06:58:20.382Z,270.00
2023-03-22T07:00:48.066Z,262.83
2023-03-22T07:03:17.020Z,285.17
2023-03-22T07:05:53.461Z,273.95
2023-03-22T07:08:22.557Z,291.45
2023-03-22T07:10:52.010Z,304.13
2023-03-22T07:13:23.157Z,294.73
2023-03-22T07:15:56.890Z,264.98
2023-03-22T07:18:41.036Z,300.98
2023-03-22T07:21:09.969Z,293.25
2023-03-22T07:23:42.216Z,311.08
2023-03-22T07:26:14.388Z,301.50
2023-03-22T07:28:46.076Z,309.75
2023-03-22T07:31:16.099Z,311.98
2023-03-22T07:34:04.668Z,301.52
2023-03-22T07:36:38.699Z,296.83
2023-03-22T07:39:11.449Z,303.95
2023-03-22T07:41:44.077Z,296.13
2023-03-22T07:44:20.827Z,311.55
2023-03-22T07:47:01.942Z,319.60
2023-03-22T07:49:37.951Z,296.23
2023-03-22T07:52:09.849Z,310.50
2023-03-22T07:54:40.166Z,321.70
2023-03-22T07:57:09.560Z,322.95
2023-03-22T07:59:48.483Z,321.02
2023-03-22T08:02:17.087Z,315.38
2023-03-22T08:04:52.219Z,316.65
2023-03-22T08:07:42.255Z,297.10
2023-03-22T08:10:13.021Z,302.30
2023-03-22T08:12:40.893Z,306.00
2023-03-22T08:15:17.856Z,285.85
2023-03-22T08:17:46.231Z,295.35
2023-03-22T08:20:20.879Z,304.55
2023-03-22T08:22:54.866Z,305.23
2023-03-22T08:25:30.252Z,293.05
2023-03-22T08:28:06.682Z,308.33
2023-03-22T08:30:34.414Z,304.48
2023-03-22T08:33:02.174Z,293.88
2023-03-22T08:35:30.110Z,301.13
2023-03-22T08:37:58.744Z,292.58
2023-03-22T08:40:36.655Z,314.60
2023-03-22T08:43:05.296Z,322.10
2023-03-22T08:45:33.087Z,332.02
2023-03-22T08:48:09.045Z,317.73
2023-03-22T08:50:56.702Z,290.05
2023-03-22T08:53:31.550Z,288.92
2023-03-22T08:56:22.614Z,296.33
2023-03-22T08:59:02.024Z,266.95
2023-03-22T09:01:55.779Z,251.05
2023-03-22T09:04:24.120Z,256.17
2023-03-22T09:06:51.850Z,228.85
2023-03-22T09:09:19.609Z,245.38
2023-03-22T09:11:51.983Z,239.55
2023-03-22T09:14:19.669Z,242.35
2023-03-22T09:16:48.749Z,221.88
2023-03-22T09:19:17.080Z,237.77
2023-03-22T09:21:45.974Z,245.93
2023-03-22T09:24:21.601Z,243.68
2023-03-22T09:26:55.568Z,237.27
2023-03-22T09:29:23.917Z,242.18
2023-03-22T09:31:51.694Z,267.20
2023-03-22T09:34:27.054Z,246.02
2023-03-22T09:36:57.455Z,243.32
2023-03-22T09:39:30.362Z,244.27
2023-03-22T09:42:06.097Z,243.55
2023-03-22T09:44:37.512Z,249.73
2023-03-22T09:47:14.529Z,241.75
2023-03-22T09:49:53.420Z,254.57
2023-03-22T09:52:22.620Z,237.85
2023-03-22T09:54:52.746Z,246.65
2023-03-22T09:57:28.461Z,239.55
2023-03-22T10:00:02.088Z,223.75
2023-03-22T10:02:50.816Z,208.15
2023-03-22T10:05:25.129Z,213.50
2023-03-22T10:08:15.252Z,207.15
2023-03-22T10:10:43.237Z,190.20
2023-03-22T10:13:19.812Z,207.32
2023-03-22T10:15:50.065Z,196.60
2023-03-22T10:18:20.604Z,184.80
2023-03-22T10:20:55.432Z,189.65
2023-03-22T10:23:30.991Z,193.70
2023-03-22T10:26:01.254Z,184.05
2023-03-22T10:28:35.921Z,177.85
2023-03-22T10:31:05.750Z,195.80
2023-03-22T10:33:39.453Z,187.00
2023-03-22T10:36:13.742Z,207.25
2023-03-22T10:38:47.010Z,212.88
2023-03-22T10:41:18.451Z,198.02
2023-03-22T10:43:51.222Z,205.68
2023-03-22T10:46:22.414Z,203.07
2023-03-22T10:48:54.049Z,214.13
2023-03-22T10:51:27.321Z,209.90
2023-03-22T10:53:58.130Z,206.60
2023-03-22T10:56:26.876Z,203.30
2023-03-22T10:58:57.307Z,196.45
2023-03-22T11:01:31.432Z,192.13
2023-03-22T11:04:01.660Z,192.75
2023-03-22T11:06:32.845Z,195.25
2023-03-22T11:09:03.791Z,210.85
2023-03-22T11:11:35.415Z,193.48
2023-03-22T11:14:08.243Z,192.75
2023-03-22T11:16:44.419Z,184.27
2023-03-22T11:19:18.139Z,181.95
2023-03-22T11:21:46.243Z,181.07
2023-03-22T11:24:15.244Z,164.77
2023-03-22T11:26:44.906Z,168.68
2023-03-22T11:29:17.710Z,170.55
2023-03-22T11:31:56.276Z,173.75
2023-03-22T11:34:27.997Z,175.65
2023-03-22T11:36:57.443Z,165.48
2023-03-22T11:39:28.231Z,156.95
2023-03-22T11:42:01.108Z,167.95
2023-03-22T11:44:35.405Z,165.57
2023-03-22T11:47:05.215Z,166.45
2023-03-22T11:49:40.582Z,158.93
2023-03-22T11:52:12.265Z,165.77
2023-03-22T11:54:42.300Z,165.93
2023-03-22T11:57:15.480Z,161.27
2023-03-22T11:59:51.004Z,165.45
2023-03-22T12:02:24.699Z,161.73
2023-03-22T12:04:57.320Z,162.48
2023-03-22T12:07:26.112Z,169.13
2023-03-22T12:10:00.258Z,163.52
2023-03-22T12:12:31.809Z,171.10
2023-03-22T12:15:05.814Z,155.82
2023-03-22T12:17:39.481Z,154.10
2023-03-22T12:20:20.879Z,144.30
2023-03-22T12:22:52.653Z,133.00
2023-03-22T12:25:22.885Z,135.52
2023-03-22T12:27:54.678Z,133.70
2023-03-22T12:30:26.944Z,135.40
2023-03-22T12:33:02.550Z,140.75
2023-03-22T12:35:34.678Z,136.30
2023-03-22T12:38:23.579Z,125.97
2023-03-22T12:40:54.459Z,128.25
2023-03-22T12:43:36.681Z,146.85
2023-03-22T12:46:07.162Z,132.27
2023-03-22T12:48:40.753Z,144.00
2023-03-22T12:51:10.624Z,135.18
2023-03-22T12:53:42.450Z,141.30
2023-03-22T12:56:14.010Z,120.60
2023-03-22T12:58:45.400Z,124.72
2023-03-22T13:01:23.471Z,129.80
2023-03-22T13:03:54.807Z,131.40
2023-03-22T13:06:33.205Z,132.50
2023-03-22T13:09:15.532Z,131.40
2023-03-22T13:11:44.940Z,137.82
2023-03-22T13:14:14.430Z,140.27
2023-03-22T13:16:52.649Z,152.13
2023-03-22T13:19:34.097Z,135.57
2023-03-22T13:22:16.472Z,133.75
2023-03-22T13:25:08.347Z,133.18
2023-03-22T13:27:38.889Z,129.25
2023-03-22T13:30:15.610Z,124.90
2023-03-22T13:32:54.618Z,131.57
2023-03-22T13:35:28.175Z,124.25
2023-03-22T13:38:03.075Z,144.13
2023-03-22T13:40:37.380Z,130.60
2023-03-22T13:43:13.409Z,140.77
2023-03-22T13:46:11.593Z,133.48
2023-03-22T13:49:17.128Z,135.40
2023-03-22T13:51:45.711Z,124.25
2023-03-22T13:54:19.800Z,123.30
2023-03-22T13:56:53.244Z,121.75
2023-03-22T13:59:27.033Z,116.30
2023-03-22T14:01:59.447Z,115.78
2023-03-22T14:04:37.711Z,118.60
2023-03-22T14:07:13.200Z,119.00
2023-03-22T14:09:46.454Z,125.43
2023-03-22T14:12:20.615Z,121.20
2023-03-22T14:14:53.121Z,121.18
2023-03-22T14:17:32.829Z,124.00
2023-03-22T14:20:05.338Z,122.95
